sensor_id;sensor_type;location;lat;lon;timestamp;temperature;humidity
20438;DHT22;17436;50.338;8.810;2022-11-12T00:00:06;9.50;99.90
20438;DHT22;17436;50.338;8.810;2022-11-12T00:02:35;9.50;99.70
20438;DHT22;17436;50.338;8.810;2022-11-12T00:05:07;9.60;98.50
20438;DHT22;17436;50.338;8.810;2022-11-12T00:07:34;9.60;97.80
20438;DHT22;17436;50.338;8.810;2022-11-12T00:10:00;9.70;97.20
20438;DHT22;17436;50.338;8.810;2022-11-12T00:12:28;9.70;96.90
20438;DHT22;17436;50.338;8.810;2022-11-12T00:14:55;9.60;96.60
20438;DHT22;17436;50.338;8.810;2022-11-12T00:17:22;9.60;97.10
20438;DHT22;17436;50.338;8.810;2022-11-12T00:19:50;9.60;96.80
20438;DHT22;17436;50.338;8.810;2022-11-12T00:22:18;9.60;96.50
20438;DHT22;17436;50.338;8.810;2022-11-12T00:24:45;9.70;96.60
20438;DHT22;17436;50.338;8.810;2022-11-12T00:27:12;9.70;96.50
20438;DHT22;17436;50.338;8.810;2022-11-12T00:29:40;9.70;96.10
20438;DHT22;17436;50.338;8.810;2022-11-12T00:32:08;9.60;96.80
20438;DHT22;17436;50.338;8.810;2022-11-12T00:34:35;9.60;97.00
20438;DHT22;17436;50.338;8.810;2022-11-12T00:37:01;9.70;97.20
20438;DHT22;17436;50.338;8.810;2022-11-12T00:39:28;9.70;97.20
20438;DHT22;17436;50.338;8.810;2022-11-12T00:41:55;9.70;97.20
20438;DHT22;17436;50.338;8.810;2022-11-12T00:44:22;9.60;96.90
20438;DHT22;17436;50.338;8.810;2022-11-12T00:46:50;9.70;97.00
20438;DHT22;17436;50.338;8.810;2022-11-12T00:49:17;9.70;96.60
20438;DHT22;17436;50.338;8.810;2022-11-12T00:51:44;9.60;96.40
20438;DHT22;17436;50.338;8.810;2022-11-12T00:54:15;9.50;97.80
20438;DHT22;17436;50.338;8.810;2022-11-12T00:56:42;9.60;97.70
20438;DHT22;17436;50.338;8.810;2022-11-12T00:59:11;9.50;97.50
20438;DHT22;17436;50.338;8.810;2022-11-12T01:01:38;9.40;97.70
20438;DHT22;17436;50.338;8.810;2022-11-12T01:04:06;9.20;98.90
20438;DHT22;17436;50.338;8.810;2022-11-12T01:06:33;9.00;99.90
20438;DHT22;17436;50.338;8.810;2022-11-12T01:09:00;9.00;99.90
20438;DHT22;17436;50.338;8.810;2022-11-12T01:11:29;9.00;99.90
20438;DHT22;17436;50.338;8.810;2022-11-12T01:13:58;9.10;99.90
20438;DHT22;17436;50.338;8.810;2022-11-12T01:16:27;9.00;99.90
20438;DHT22;17436;50.338;8.810;2022-11-12T01:18:59;9.00;99.90
20438;DHT22;17436;50.338;8.810;2022-11-12T01:21:35;9.20;99.90
20438;DHT22;17436;50.338;8.810;2022-11-12T01:24:08;9.20;99.90
20438;DHT22;17436;50.338;8.810;2022-11-12T01:26:40;9.20;99.90
20438;DHT22;17436;50.338;8.810;2022-11-12T01:29:09;9.20;99.90
20438;DHT22;17436;50.338;8.810;2022-11-12T01:31:38;9.20;99.90
20438;DHT22;17436;50.338;8.810;2022-11-12T01:34:08;9.20;99.90
20438;DHT22;17436;50.338;8.810;2022-11-12T01:36:40;9.20;99.90
20438;DHT22;17436;50.338;8.810;2022-11-12T01:39:09;9.20;99.90
20438;DHT22;17436;50.338;8.810;2022-11-12T01:41:39;9.30;99.90
20438;DHT22;17436;50.338;8.810;2022-11-12T01:44:10;9.40;99.80
20438;DHT22;17436;50.338;8.810;2022-11-12T01:46:45;9.30;99.90
20438;DHT22;17436;50.338;8.810;2022-11-12T01:49:24;9.40;98.70
20438;DHT22;17436;50.338;8.810;2022-11-12T01:51:59;9.50;98.30
20438;DHT22;17436;50.338;8.810;2022-11-12T01:54:29;9.50;98.20
20438;DHT22;17436;50.338;8.810;2022-11-12T01:56:57;9.50;97.00
20438;DHT22;17436;50.338;8.810;2022-11-12T01:59:28;9.40;96.60
20438;DHT22;17436;50.338;8.810;2022-11-12T02:01:58;9.40;96.10
20438;DHT22;17436;50.338;8.810;2022-11-12T02:04:26;9.20;97.60
20438;DHT22;17436;50.338;8.810;2022-11-12T02:06:56;9.10;98.40
20438;DHT22;17436;50.338;8.810;2022-11-12T02:09:24;9.10;98.40
20438;DHT22;17436;50.338;8.810;2022-11-12T02:11:51;9.20;99.80
20438;DHT22;17436;50.338;8.810;2022-11-12T02:14:18;9.30;98.40
20438;DHT22;17436;50.338;8.810;2022-11-12T02:16:45;9.40;98.00
20438;DHT22;17436;50.338;8.810;2022-11-12T02:19:14;9.40;97.10
20438;DHT22;17436;50.338;8.810;2022-11-12T02:21:43;9.40;97.40
20438;DHT22;17436;50.338;8.810;2022-11-12T02:24:33;9.40;96.50
20438;DHT22;17436;50.338;8.810;2022-11-12T02:27:03;9.40;95.70
20438;DHT22;17436;50.338;8.810;2022-11-12T02:29:31;9.40;96.50
20438;DHT22;17436;50.338;8.810;2022-11-12T02:31:58;9.40;96.00
20438;DHT22;17436;50.338;8.810;2022-11-12T02:34:24;9.40;96.00
20438;DHT22;17436;50.338;8.810;2022-11-12T02:36:53;9.40;96.80
20438;DHT22;17436;50.338;8.810;2022-11-12T02:39:20;9.40;96.50
20438;DHT22;17436;50.338;8.810;2022-11-12T02:41:47;9.50;96.10
20438;DHT22;17436;50.338;8.810;2022-11-12T02:44:14;9.50;95.70
20438;DHT22;17436;50.338;8.810;2022-11-12T02:46:41;9.40;95.00
20438;DHT22;17436;50.338;8.810;2022-11-12T02:49:07;9.50;95.30
20438;DHT22;17436;50.338;8.810;2022-11-12T02:51:34;9.50;95.20
20438;DHT22;17436;50.338;8.810;2022-11-12T02:54:02;9.50;94.70
20438;DHT22;17436;50.338;8.810;2022-11-12T02:56:29;9.40;94.70
20438;DHT22;17436;50.338;8.810;2022-11-12T02:58:56;9.40;94.80
20438;DHT22;17436;50.338;8.810;2022-11-12T03:01:23;9.40;94.30
20438;DHT22;17436;50.338;8.810;2022-11-12T03:03:49;9.40;94.90
20438;DHT22;17436;50.338;8.810;2022-11-12T03:06:16;9.50;94.60
20438;DHT22;17436;50.338;8.810;2022-11-12T03:08:44;9.50;94.10
20438;DHT22;17436;50.338;8.810;2022-11-12T03:11:13;9.40;94.00
20438;DHT22;17436;50.338;8.810;2022-11-12T03:13:40;9.10;95.60
20438;DHT22;17436;50.338;8.810;2022-11-12T03:16:08;9.00;96.10
20438;DHT22;17436;50.338;8.810;2022-11-12T03:18:35;9.20;96.30
20438;DHT22;17436;50.338;8.810;2022-11-12T03:21:02;9.40;95.60
20438;DHT22;17436;50.338;8.810;2022-11-12T03:23:30;9.30;95.00
20438;DHT22;17436;50.338;8.810;2022-11-12T03:25:57;9.30;94.40
20438;DHT22;17436;50.338;8.810;2022-11-12T03:28:25;9.30;94.50
20438;DHT22;17436;50.338;8.810;2022-11-12T03:30:56;9.30;94.10
20438;DHT22;17436;50.338;8.810;2022-11-12T03:33:23;9.40;94.40
20438;DHT22;17436;50.338;8.810;2022-11-12T03:35:50;9.40;94.40
20438;DHT22;17436;50.338;8.810;2022-11-12T03:38:16;9.40;94.20
20438;DHT22;17436;50.338;8.810;2022-11-12T03:40:43;9.40;94.30
20438;DHT22;17436;50.338;8.810;2022-11-12T03:43:10;9.40;93.70
20438;DHT22;17436;50.338;8.810;2022-11-12T03:45:38;9.40;93.30
20438;DHT22;17436;50.338;8.810;2022-11-12T03:48:05;9.30;94.30
20438;DHT22;17436;50.338;8.810;2022-11-12T03:50:33;9.30;94.80
20438;DHT22;17436;50.338;8.810;2022-11-12T03:52:59;9.20;95.30
20438;DHT22;17436;50.338;8.810;2022-11-12T03:55:28;9.30;95.80
20438;DHT22;17436;50.338;8.810;2022-11-12T03:57:55;9.30;94.70
20438;DHT22;17436;50.338;8.810;2022-11-12T04:00:25;9.30;94.50
20438;DHT22;17436;50.338;8.810;2022-11-12T04:02:53;9.20;94.00
20438;DHT22;17436;50.338;8.810;2022-11-12T04:05:20;9.20;94.10
20438;DHT22;17436;50.338;8.810;2022-11-12T04:08:06;9.20;94.20
20438;DHT22;17436;50.338;8.810;2022-11-12T04:10:52;9.30;94.30
20438;DHT22;17436;50.338;8.810;2022-11-12T04:13:19;9.30;94.50
20438;DHT22;17436;50.338;8.810;2022-11-12T04:15:57;9.20;94.10
20438;DHT22;17436;50.338;8.810;2022-11-12T04:18:44;9.20;93.90
20438;DHT22;17436;50.338;8.810;2022-11-12T04:21:31;9.10;94.30
20438;DHT22;17436;50.338;8.810;2022-11-12T04:24:17;9.10;94.00
20438;DHT22;17436;50.338;8.810;2022-11-12T04:27:02;9.10;94.40
20438;DHT22;17436;50.338;8.810;2022-11-12T04:29:29;9.20;94.40
20438;DHT22;17436;50.338;8.810;2022-11-12T04:32:13;9.20;94.10
20438;DHT22;17436;50.338;8.810;2022-11-12T04:34:41;9.30;94.00
20438;DHT22;17436;50.338;8.810;2022-11-12T04:37:08;9.30;93.20
20438;DHT22;17436;50.338;8.810;2022-11-12T04:39:35;9.30;92.60
20438;DHT22;17436;50.338;8.810;2022-11-12T04:42:02;9.20;93.10
20438;DHT22;17436;50.338;8.810;2022-11-12T04:44:46;9.20;92.40
20438;DHT22;17436;50.338;8.810;2022-11-12T04:47:28;9.10;92.10
20438;DHT22;17436;50.338;8.810;2022-11-12T04:49:57;9.00;91.70
20438;DHT22;17436;50.338;8.810;2022-11-12T04:52:24;8.90;91.70
20438;DHT22;17436;50.338;8.810;2022-11-12T04:54:51;8.80;92.00
20438;DHT22;17436;50.338;8.810;2022-11-12T04:57:18;8.70;92.30
20438;DHT22;17436;50.338;8.810;2022-11-12T04:59:45;8.70;92.60
20438;DHT22;17436;50.338;8.810;2022-11-12T05:02:12;8.70;92.80
20438;DHT22;17436;50.338;8.810;2022-11-12T05:04:39;8.70;92.60
20438;DHT22;17436;50.338;8.810;2022-11-12T05:07:09;8.70;92.10
20438;DHT22;17436;50.338;8.810;2022-11-12T05:09:36;8.60;92.50
20438;DHT22;17436;50.338;8.810;2022-11-12T05:12:03;8.50;93.60
20438;DHT22;17436;50.338;8.810;2022-11-12T05:14:30;8.70;93.00
20438;DHT22;17436;50.338;8.810;2022-11-12T05:16:57;8.80;92.20
20438;DHT22;17436;50.338;8.810;2022-11-12T05:19:24;8.70;92.00
20438;DHT22;17436;50.338;8.810;2022-11-12T05:21:51;8.50;92.60
20438;DHT22;17436;50.338;8.810;2022-11-12T05:24:40;8.60;93.50
20438;DHT22;17436;50.338;8.810;2022-11-12T05:27:12;8.60;93.50
20438;DHT22;17436;50.338;8.810;2022-11-12T05:29:40;8.50;93.60
20438;DHT22;17436;50.338;8.810;2022-11-12T05:32:08;8.60;93.40
20438;DHT22;17436;50.338;8.810;2022-11-12T05:34:36;8.60;93.20
20438;DHT22;17436;50.338;8.810;2022-11-12T05:37:04;8.70;93.10
20438;DHT22;17436;50.338;8.810;2022-11-12T05:39:39;8.80;92.20
20438;DHT22;17436;50.338;8.810;2022-11-12T05:42:07;8.80;92.10
20438;DHT22;17436;50.338;8.810;2022-11-12T05:44:34;8.80;91.50
20438;DHT22;17436;50.338;8.810;2022-11-12T05:47:00;8.80;91.00
20438;DHT22;17436;50.338;8.810;2022-11-12T05:49:27;8.70;91.20
20438;DHT22;17436;50.338;8.810;2022-11-12T05:51:54;8.70;91.90
20438;DHT22;17436;50.338;8.810;2022-11-12T05:54:21;8.60;91.90
20438;DHT22;17436;50.338;8.810;2022-11-12T05:56:51;8.60;92.20
20438;DHT22;17436;50.338;8.810;2022-11-12T05:59:18;8.60;92.00
20438;DHT22;17436;50.338;8.810;2022-11-12T06:01:44;8.60;92.70
20438;DHT22;17436;50.338;8.810;2022-11-12T06:04:13;8.60;92.60
20438;DHT22;17436;50.338;8.810;2022-11-12T06:06:41;8.60;92.80
20438;DHT22;17436;50.338;8.810;2022-11-12T06:09:09;8.60;93.20
20438;DHT22;17436;50.338;8.810;2022-11-12T06:11:37;8.50;93.60
20438;DHT22;17436;50.338;8.810;2022-11-12T06:14:05;8.40;93.80
20438;DHT22;17436;50.338;8.810;2022-11-12T06:16:32;8.40;94.30
20438;DHT22;17436;50.338;8.810;2022-11-12T06:18:59;8.40;94.30
20438;DHT22;17436;50.338;8.810;2022-11-12T06:21:25;8.50;94.20
20438;DHT22;17436;50.338;8.810;2022-11-12T06:23:55;8.50;94.30
20438;DHT22;17436;50.338;8.810;2022-11-12T06:26:23;8.40;94.40
20438;DHT22;17436;50.338;8.810;2022-11-12T06:28:50;8.40;94.60
20438;DHT22;17436;50.338;8.810;2022-11-12T06:31:19;8.40;95.50
20438;DHT22;17436;50.338;8.810;2022-11-12T06:33:46;8.40;95.40
20438;DHT22;17436;50.338;8.810;2022-11-12T06:36:15;8.40;95.80
20438;DHT22;17436;50.338;8.810;2022-11-12T06:38:42;8.30;95.70
20438;DHT22;17436;50.338;8.810;2022-11-12T06:41:10;8.20;96.10
20438;DHT22;17436;50.338;8.810;2022-11-12T06:43:38;8.30;96.30
20438;DHT22;17436;50.338;8.810;2022-11-12T06:46:06;8.30;95.80
20438;DHT22;17436;50.338;8.810;2022-11-12T06:48:34;8.30;95.40
20438;DHT22;17436;50.338;8.810;2022-11-12T06:51:13;8.30;95.50
20438;DHT22;17436;50.338;8.810;2022-11-12T06:53:42;8.20;95.30
20438;DHT22;17436;50.338;8.810;2022-11-12T06:56:11;8.20;96.00
20438;DHT22;17436;50.338;8.810;2022-11-12T06:58:38;8.20;96.00
20438;DHT22;17436;50.338;8.810;2022-11-12T07:01:07;8.20;96.00
20438;DHT22;17436;50.338;8.810;2022-11-12T07:03:36;8.30;95.20
20438;DHT22;17436;50.338;8.810;2022-11-12T07:06:05;8.20;95.70
20438;DHT22;17436;50.338;8.810;2022-11-12T07:08:33;8.20;95.30
20438;DHT22;17436;50.338;8.810;2022-11-12T07:11:00;8.20;95.00
20438;DHT22;17436;50.338;8.810;2022-11-12T07:13:29;8.20;95.60
20438;DHT22;17436;50.338;8.810;2022-11-12T07:15:56;8.20;95.50
20438;DHT22;17436;50.338;8.810;2022-11-12T07:18:24;8.20;95.30
20438;DHT22;17436;50.338;8.810;2022-11-12T07:20:56;8.30;95.20
20438;DHT22;17436;50.338;8.810;2022-11-12T07:23:23;8.30;94.10
20438;DHT22;17436;50.338;8.810;2022-11-12T07:25:55;8.40;94.40
20438;DHT22;17436;50.338;8.810;2022-11-12T07:28:22;8.40;93.30
20438;DHT22;17436;50.338;8.810;2022-11-12T07:30:54;8.40;93.60
20438;DHT22;17436;50.338;8.810;2022-11-12T07:33:20;8.30;93.20
20438;DHT22;17436;50.338;8.810;2022-11-12T07:35:47;8.40;93.20
20438;DHT22;17436;50.338;8.810;2022-11-12T07:38:18;8.40;93.20
20438;DHT22;17436;50.338;8.810;2022-11-12T07:40:45;8.40;93.40
20438;DHT22;17436;50.338;8.810;2022-11-12T07:43:11;8.40;93.90
20438;DHT22;17436;50.338;8.810;2022-11-12T07:45:38;8.30;93.20
20438;DHT22;17436;50.338;8.810;2022-11-12T07:48:06;8.30;92.80
20438;DHT22;17436;50.338;8.810;2022-11-12T07:50:34;8.30;93.10
20438;DHT22;17436;50.338;8.810;2022-11-12T07:53:00;8.40;93.70
20438;DHT22;17436;50.338;8.810;2022-11-12T07:55:28;8.30;92.90
20438;DHT22;17436;50.338;8.810;2022-11-12T07:57:58;8.40;92.90
20438;DHT22;17436;50.338;8.810;2022-11-12T08:00:24;8.40;92.70
20438;DHT22;17436;50.338;8.810;2022-11-12T08:02:51;8.50;93.10
20438;DHT22;17436;50.338;8.810;2022-11-12T08:05:18;8.50;93.50
20438;DHT22;17436;50.338;8.810;2022-11-12T08:07:45;8.50;93.60
20438;DHT22;17436;50.338;8.810;2022-11-12T08:10:11;8.50;92.90
20438;DHT22;17436;50.338;8.810;2022-11-12T08:12:39;8.30;93.90
20438;DHT22;17436;50.338;8.810;2022-11-12T08:15:09;8.50;94.30
20438;DHT22;17436;50.338;8.810;2022-11-12T08:17:37;8.50;92.70
20438;DHT22;17436;50.338;8.810;2022-11-12T08:20:05;8.50;93.20
20438;DHT22;17436;50.338;8.810;2022-11-12T08:22:32;8.60;93.20
20438;DHT22;17436;50.338;8.810;2022-11-12T08:24:58;8.40;93.30
20438;DHT22;17436;50.338;8.810;2022-11-12T08:27:25;8.50;93.30
20438;DHT22;17436;50.338;8.810;2022-11-12T08:29:53;8.60;93.40
20438;DHT22;17436;50.338;8.810;2022-11-12T08:32:20;8.60;92.70
20438;DHT22;17436;50.338;8.810;2022-11-12T08:34:47;8.70;90.90
20438;DHT22;17436;50.338;8.810;2022-11-12T08:37:13;8.50;90.30
20438;DHT22;17436;50.338;8.810;2022-11-12T08:39:40;8.40;91.00
20438;DHT22;17436;50.338;8.810;2022-11-12T08:42:07;8.50;91.60
20438;DHT22;17436;50.338;8.810;2022-11-12T08:44:34;8.60;90.30
20438;DHT22;17436;50.338;8.810;2022-11-12T08:47:02;8.70;89.70
20438;DHT22;17436;50.338;8.810;2022-11-12T08:49:29;8.60;90.70
20438;DHT22;17436;50.338;8.810;2022-11-12T08:51:56;8.50;90.00
20438;DHT22;17436;50.338;8.810;2022-11-12T08:54:23;8.50;90.30
20438;DHT22;17436;50.338;8.810;2022-11-12T08:56:50;8.60;90.30
20438;DHT22;17436;50.338;8.810;2022-11-12T08:59:16;8.70;90.40
20438;DHT22;17436;50.338;8.810;2022-11-12T09:01:43;8.60;89.20
20438;DHT22;17436;50.338;8.810;2022-11-12T09:04:11;8.60;88.30
20438;DHT22;17436;50.338;8.810;2022-11-12T09:06:38;8.60;88.30
20438;DHT22;17436;50.338;8.810;2022-11-12T09:09:09;8.40;88.10
20438;DHT22;17436;50.338;8.810;2022-11-12T09:11:37;8.50;90.30
20438;DHT22;17436;50.338;8.810;2022-11-12T09:14:03;8.40;90.30
20438;DHT22;17436;50.338;8.810;2022-11-12T09:16:30;8.50;91.50
20438;DHT22;17436;50.338;8.810;2022-11-12T09:18:57;8.50;91.50
20438;DHT22;17436;50.338;8.810;2022-11-12T09:21:25;8.50;90.30
20438;DHT22;17436;50.338;8.810;2022-11-12T09:23:51;8.50;91.80
20438;DHT22;17436;50.338;8.810;2022-11-12T09:26:18;8.60;92.00
20438;DHT22;17436;50.338;8.810;2022-11-12T09:28:45;8.40;93.00
20438;DHT22;17436;50.338;8.810;2022-11-12T09:31:11;8.60;93.20
20438;DHT22;17436;50.338;8.810;2022-11-12T09:33:38;8.60;92.90
20438;DHT22;17436;50.338;8.810;2022-11-12T09:36:07;8.40;92.50
20438;DHT22;17436;50.338;8.810;2022-11-12T09:38:36;8.40;91.40
20438;DHT22;17436;50.338;8.810;2022-11-12T09:41:27;8.50;94.00
20438;DHT22;17436;50.338;8.810;2022-11-12T09:43:59;8.60;92.70
20438;DHT22;17436;50.338;8.810;2022-11-12T09:46:40;8.50;92.00
20438;DHT22;17436;50.338;8.810;2022-11-12T09:49:13;8.60;91.50
20438;DHT22;17436;50.338;8.810;2022-11-12T09:51:44;8.60;91.20
20438;DHT22;17436;50.338;8.810;2022-11-12T09:54:24;8.60;92.30
20438;DHT22;17436;50.338;8.810;2022-11-12T09:56:52;8.70;91.80
20438;DHT22;17436;50.338;8.810;2022-11-12T09:59:20;8.60;92.70
20438;DHT22;17436;50.338;8.810;2022-11-12T10:01:54;8.60;92.40
20438;DHT22;17436;50.338;8.810;2022-11-12T10:04:43;8.60;91.60
20438;DHT22;17436;50.338;8.810;2022-11-12T10:07:22;8.60;90.60
20438;DHT22;17436;50.338;8.810;2022-11-12T10:09:58;8.50;90.30
20438;DHT22;17436;50.338;8.810;2022-11-12T10:12:36;8.40;92.30
20438;DHT22;17436;50.338;8.810;2022-11-12T10:15:30;8.50;92.70
20438;DHT22;17436;50.338;8.810;2022-11-12T10:18:24;8.50;91.10
20438;DHT22;17436;50.338;8.810;2022-11-12T10:20:55;8.40;93.60
20438;DHT22;17436;50.338;8.810;2022-11-12T10:23:26;8.60;93.40
20438;DHT22;17436;50.338;8.810;2022-11-12T10:25:57;8.60;93.50
20438;DHT22;17436;50.338;8.810;2022-11-12T10:28:27;8.80;93.30
20438;DHT22;17436;50.338;8.810;2022-11-12T10:31:11;8.70;91.20
20438;DHT22;17436;50.338;8.810;2022-11-12T10:33:38;8.90;90.70
20438;DHT22;17436;50.338;8.810;2022-11-12T10:36:17;8.70;91.50
20438;DHT22;17436;50.338;8.810;2022-11-12T10:38:47;8.90;91.60
20438;DHT22;17436;50.338;8.810;2022-11-12T10:41:22;8.90;91.60
20438;DHT22;17436;50.338;8.810;2022-11-12T10:43:56;8.90;91.80
20438;DHT22;17436;50.338;8.810;2022-11-12T10:46:25;9.00;93.00
20438;DHT22;17436;50.338;8.810;2022-11-12T10:48:53;9.10;92.10
20438;DHT22;17436;50.338;8.810;2022-11-12T10:51:27;9.10;93.20
20438;DHT22;17436;50.338;8.810;2022-11-12T10:53:54;9.20;92.80
20438;DHT22;17436;50.338;8.810;2022-11-12T10:56:25;9.40;91.90
20438;DHT22;17436;50.338;8.810;2022-11-12T10:59:09;9.40;90.60
20438;DHT22;17436;50.338;8.810;2022-11-12T11:01:36;9.10;91.50
20438;DHT22;17436;50.338;8.810;2022-11-12T11:04:03;8.90;91.50
20438;DHT22;17436;50.338;8.810;2022-11-12T11:06:31;9.00;94.00
20438;DHT22;17436;50.338;8.810;2022-11-12T11:09:14;8.80;94.40
20438;DHT22;17436;50.338;8.810;2022-11-12T11:11:49;9.00;94.30
20438;DHT22;17436;50.338;8.810;2022-11-12T11:14:25;8.80;94.50
20438;DHT22;17436;50.338;8.810;2022-11-12T11:16:53;8.80;94.00
20438;DHT22;17436;50.338;8.810;2022-11-12T11:19:20;8.70;92.70
20438;DHT22;17436;50.338;8.810;2022-11-12T11:24:50;8.90;94.90
20438;DHT22;17436;50.338;8.810;2022-11-12T11:27:28;8.90;95.00
20438;DHT22;17436;50.338;8.810;2022-11-12T11:30:08;8.90;94.90
20438;DHT22;17436;50.338;8.810;2022-11-12T11:32:54;8.90;95.70
20438;DHT22;17436;50.338;8.810;2022-11-12T11:35:30;8.60;96.60
20438;DHT22;17436;50.338;8.810;2022-11-12T11:38:14;8.80;97.70
20438;DHT22;17436;50.338;8.810;2022-11-12T11:40:50;8.90;97.70
20438;DHT22;17436;50.338;8.810;2022-11-12T11:43:36;8.90;98.00
20438;DHT22;17436;50.338;8.810;2022-11-12T11:46:13;9.00;95.90
20438;DHT22;17436;50.338;8.810;2022-11-12T11:48:52;9.00;94.70
20438;DHT22;17436;50.338;8.810;2022-11-12T11:51:35;9.20;95.30
20438;DHT22;17436;50.338;8.810;2022-11-12T11:54:18;9.20;95.60
20438;DHT22;17436;50.338;8.810;2022-11-12T11:56:51;9.00;95.10
20438;DHT22;17436;50.338;8.810;2022-11-12T11:59:32;9.00;96.70
20438;DHT22;17436;50.338;8.810;2022-11-12T12:02:31;9.00;96.00
20438;DHT22;17436;50.338;8.810;2022-11-12T12:05:06;9.10;95.70
20438;DHT22;17436;50.338;8.810;2022-11-12T12:07:44;9.00;97.10
20438;DHT22;17436;50.338;8.810;2022-11-12T12:10:21;9.10;97.50
20438;DHT22;17436;50.338;8.810;2022-11-12T12:12:56;9.20;97.20
20438;DHT22;17436;50.338;8.810;2022-11-12T12:15:46;9.30;94.90
20438;DHT22;17436;50.338;8.810;2022-11-12T12:18:27;9.30;94.10
20438;DHT22;17436;50.338;8.810;2022-11-12T12:21:03;9.30;93.90
20438;DHT22;17436;50.338;8.810;2022-11-12T12:23:36;9.40;94.10
20438;DHT22;17436;50.338;8.810;2022-11-12T12:26:11;9.40;94.90
20438;DHT22;17436;50.338;8.810;2022-11-12T12:28:42;9.30;94.90
20438;DHT22;17436;50.338;8.810;2022-11-12T12:31:14;9.10;95.00
20438;DHT22;17436;50.338;8.810;2022-11-12T12:33:46;9.20;95.30
20438;DHT22;17436;50.338;8.810;2022-11-12T12:36:17;9.40;94.60
20438;DHT22;17436;50.338;8.810;2022-11-12T12:38:50;9.30;93.50
20438;DHT22;17436;50.338;8.810;2022-11-12T12:41:21;9.40;93.10
20438;DHT22;17436;50.338;8.810;2022-11-12T12:43:54;9.40;92.70
20438;DHT22;17436;50.338;8.810;2022-11-12T12:46:26;9.40;92.90
20438;DHT22;17436;50.338;8.810;2022-11-12T12:48:54;9.40;93.30
20438;DHT22;17436;50.338;8.810;2022-11-12T12:51:22;9.40;93.00
20438;DHT22;17436;50.338;8.810;2022-11-12T12:53:49;9.20;94.30
20438;DHT22;17436;50.338;8.810;2022-11-12T12:56:41;9.30;95.40
20438;DHT22;17436;50.338;8.810;2022-11-12T12:59:18;9.40;95.00
20438;DHT22;17436;50.338;8.810;2022-11-12T13:01:53;9.40;95.10
20438;DHT22;17436;50.338;8.810;2022-11-12T13:04:48;9.40;94.90
20438;DHT22;17436;50.338;8.810;2022-11-12T13:07:16;9.60;94.60
20438;DHT22;17436;50.338;8.810;2022-11-12T13:09:43;9.50;94.60
20438;DHT22;17436;50.338;8.810;2022-11-12T13:12:11;9.50;94.60
20438;DHT22;17436;50.338;8.810;2022-11-12T13:15:12;9.50;95.40
20438;DHT22;17436;50.338;8.810;2022-11-12T13:17:44;9.20;95.90
20438;DHT22;17436;50.338;8.810;2022-11-12T13:20:38;9.30;97.80
20438;DHT22;17436;50.338;8.810;2022-11-12T13:32:35;9.20;96.70
20438;DHT22;17436;50.338;8.810;2022-11-12T13:35:30;9.30;98.40
20438;DHT22;17436;50.338;8.810;2022-11-12T13:38:01;9.40;97.60
20438;DHT22;17436;50.338;8.810;2022-11-12T13:40:47;9.40;97.00
20438;DHT22;17436;50.338;8.810;2022-11-12T13:43:22;9.50;95.30
20438;DHT22;17436;50.338;8.810;2022-11-12T13:45:53;9.40;96.40
20438;DHT22;17436;50.338;8.810;2022-11-12T13:48:25;9.50;96.00
20438;DHT22;17436;50.338;8.810;2022-11-12T13:50:57;9.20;95.70
20438;DHT22;17436;50.338;8.810;2022-11-12T13:53:25;9.30;96.60
20438;DHT22;17436;50.338;8.810;2022-11-12T13:55:53;9.40;95.60
20438;DHT22;17436;50.338;8.810;2022-11-12T13:58:27;9.40;95.70
20438;DHT22;17436;50.338;8.810;2022-11-12T14:00:55;9.50;95.80
20438;DHT22;17436;50.338;8.810;2022-11-12T14:03:24;9.50;95.20
20438;DHT22;17436;50.338;8.810;2022-11-12T14:05:54;9.30;97.60
20438;DHT22;17436;50.338;8.810;2022-11-12T14:08:42;9.30;98.10
20438;DHT22;17436;50.338;8.810;2022-11-12T14:11:30;9.30;97.70
20438;DHT22;17436;50.338;8.810;2022-11-12T14:14:04;9.40;98.20
20438;DHT22;17436;50.338;8.810;2022-11-12T14:16:40;9.40;96.80
20438;DHT22;17436;50.338;8.810;2022-11-12T14:19:37;9.30;97.00
20438;DHT22;17436;50.338;8.810;2022-11-12T14:22:15;9.30;96.80
20438;DHT22;17436;50.338;8.810;2022-11-12T14:24:43;9.30;97.00
20438;DHT22;17436;50.338;8.810;2022-11-12T14:27:33;9.30;97.50
20438;DHT22;17436;50.338;8.810;2022-11-12T14:30:10;9.30;97.30
20438;DHT22;17436;50.338;8.810;2022-11-12T14:32:39;9.30;97.00
20438;DHT22;17436;50.338;8.810;2022-11-12T14:35:27;9.40;98.20
20438;DHT22;17436;50.338;8.810;2022-11-12T14:37:59;9.10;96.50
20438;DHT22;17436;50.338;8.810;2022-11-12T14:40:30;8.90;98.70
20438;DHT22;17436;50.338;8.810;2022-11-12T14:42:57;8.90;99.90
20438;DHT22;17436;50.338;8.810;2022-11-12T14:45:24;9.00;99.90
20438;DHT22;17436;50.338;8.810;2022-11-12T14:47:52;9.00;99.20
20438;DHT22;17436;50.338;8.810;2022-11-12T14:50:22;8.90;99.50
20438;DHT22;17436;50.338;8.810;2022-11-12T14:52:53;8.90;99.90
20438;DHT22;17436;50.338;8.810;2022-11-12T14:55:25;9.20;99.90
20438;DHT22;17436;50.338;8.810;2022-11-12T14:57:52;9.30;99.40
20438;DHT22;17436;50.338;8.810;2022-11-12T15:00:36;9.20;98.40
20438;DHT22;17436;50.338;8.810;2022-11-12T15:03:04;9.20;98.80
20438;DHT22;17436;50.338;8.810;2022-11-12T15:05:31;9.20;99.10
20438;DHT22;17436;50.338;8.810;2022-11-12T15:08:00;9.20;98.70
20438;DHT22;17436;50.338;8.810;2022-11-12T15:10:31;9.10;99.00
20438;DHT22;17436;50.338;8.810;2022-11-12T15:13:03;9.20;99.30
20438;DHT22;17436;50.338;8.810;2022-11-12T15:15:31;9.20;99.20
20438;DHT22;17436;50.338;8.810;2022-11-12T15:18:02;9.20;99.50
20438;DHT22;17436;50.338;8.810;2022-11-12T15:20:30;9.20;99.50
20438;DHT22;17436;50.338;8.810;2022-11-12T15:22:57;9.20;99.90
20438;DHT22;17436;50.338;8.810;2022-11-12T15:25:26;9.10;99.90
20438;DHT22;17436;50.338;8.810;2022-11-12T15:27:55;9.10;99.90
20438;DHT22;17436;50.338;8.810;2022-11-12T15:30:37;9.20;99.90
20438;DHT22;17436;50.338;8.810;2022-11-12T15:33:15;9.10;99.90
20438;DHT22;17436;50.338;8.810;2022-11-12T15:35:43;9.10;99.90
20438;DHT22;17436;50.338;8.810;2022-11-12T15:38:16;9.20;99.90
20438;DHT22;17436;50.338;8.810;2022-11-12T15:40:46;8.90;99.90
20438;DHT22;17436;50.338;8.810;2022-11-12T15:43:22;8.90;99.90
20438;DHT22;17436;50.338;8.810;2022-11-12T15:45:50;9.00;99.90
20438;DHT22;17436;50.338;8.810;2022-11-12T15:48:16;9.00;99.90
20438;DHT22;17436;50.338;8.810;2022-11-12T15:50:44;9.00;99.90
20438;DHT22;17436;50.338;8.810;2022-11-12T15:53:11;8.90;99.90
20438;DHT22;17436;50.338;8.810;2022-11-12T15:55:38;9.00;99.90
20438;DHT22;17436;50.338;8.810;2022-11-12T15:58:06;8.80;99.90
20438;DHT22;17436;50.338;8.810;2022-11-12T16:00:38;8.90;99.90
20438;DHT22;17436;50.338;8.810;2022-11-12T16:03:11;8.80;99.90
20438;DHT22;17436;50.338;8.810;2022-11-12T16:05:39;8.80;99.90
20438;DHT22;17436;50.338;8.810;2022-11-12T16:08:06;8.90;99.90
20438;DHT22;17436;50.338;8.810;2022-11-12T16:10:33;8.90;99.90
20438;DHT22;17436;50.338;8.810;2022-11-12T16:13:01;9.00;99.90
20438;DHT22;17436;50.338;8.810;2022-11-12T16:15:28;9.00;99.90
20438;DHT22;17436;50.338;8.810;2022-11-12T16:17:57;8.90;99.90
20438;DHT22;17436;50.338;8.810;2022-11-12T16:20:28;8.90;99.90